^^
Station Historical Data
Daily Summary for January 6, 2017 Units:  Metric    English   Both
« Previous Day
Next Day »
Daily Weekly Monthly Yearly Custom
  High: Low: Average:
Temperature: -17.8 °C -30.9 °C -28.9 °C
Dew Point: -17.8 °C -32 °C -29.9 °C
Humidity: Humidity% 83% 85%
Wind Speed: 0km/h 0km/h 0.5km/h
Wind Gust: 0km/h - -
Wind- - WNW
Pressure: 0 hPa 34933.4 hPa -
Precipitation: 0 mm    
Historical Graphs
 
 
Tabular Data for January 6, 2017
Time Temperature Dew Point Pressure Wind Wind Speed Wind Gust Humidity Rainfall Rate (Hourly) solar Conditions
-17.8 °C -17.8 °C 0 hPa Calm     Humidity% 0 mm SoftwareType W/m2 Conditions
00:03 -29.2 °C -30.3 °C 35048.5 hPa Calm     85% 0 mm WeatherDisplay:10.37 W/m2 FEW
00:08 -29.3 °C -30.3 °C 35048.5 hPa Calm     85% 0 mm WeatherDisplay:10.37 W/m2 FEW
00:13 -29.3 °C -30.4 °C 35048.5 hPa Calm     84% 0 mm WeatherDisplay:10.37 W/m2 FEW
00:18 -29.4 °C -30.5 °C 35048.5 hPa Calm     84% 0 mm WeatherDisplay:10.37 W/m2 FEW
00:23 -29.4 °C -30.6 °C 35048.5 hPa Calm     84% 0 mm WeatherDisplay:10.37 W/m2 FEW
00:28 -29.4 °C -30.6 °C 35048.5 hPa NNW 0.8 km/h 7.7 km/h 84% 0 mm WeatherDisplay:10.37 W/m2 FEW
00:33 -29.3 °C -30.4 °C 35048.5 hPa NNW 2.1 km/h 2.6 km/h 85% 0 mm WeatherDisplay:10.37 W/m2 FEW
00:38 -29.3 °C -30.3 °C 35058.6 hPa NNW 1.6 km/h 6 km/h 85% 0 mm WeatherDisplay:10.37 W/m2 FEW
00:44 -29.2 °C -30.1 °C 35058.6 hPa NNW 6.8 km/h 9 km/h 86% 0 mm WeatherDisplay:10.37 W/m2 FEW
00:49 -29.1 °C -30.1 °C 35058.6 hPa NNW 7.2 km/h 11.9 km/h 86% 0 mm WeatherDisplay:10.37 W/m2 FEW
00:54 -29.1 °C -30 °C 35058.6 hPa NNW 6 km/h 9 km/h 86% 0 mm WeatherDisplay:10.37 W/m2 FEW
00:59 -29.1 °C -30.1 °C 35058.6 hPa NNW 7.7 km/h 9 km/h 85% 0 mm WeatherDisplay:10.37 W/m2 FEW
01:04 -29.1 °C -30.2 °C 35058.6 hPa NNW 3.9 km/h 9 km/h 85% 0 mm WeatherDisplay:10.37 W/m2 FEW
01:09 -29.1 °C -30.2 °C 35058.6 hPa NNW 6.3 km/h 9 km/h 85% 0 mm WeatherDisplay:10.37 W/m2 FEW
01:14 -29.1 °C -30.2 °C 35058.6 hPa NNW 4.3 km/h 9 km/h 85% 0 mm WeatherDisplay:10.37 W/m2 FEW
01:19 -29.1 °C -30.2 °C 35058.6 hPa NNW 2.1 km/h 6 km/h 85% 0 mm WeatherDisplay:10.37 W/m2 FEW
01:24 -29.2 °C -30.2 °C 35072.2 hPa NNW 2.6 km/h 9 km/h 85% 0 mm WeatherDisplay:10.37 W/m2 FEW
01:29 -29.2 °C -30.2 °C 35072.2 hPa NNW 3.9 km/h 6 km/h 85% 0 mm WeatherDisplay:10.37 W/m2 FEW
01:34 -29.2 °C -30.2 °C 35072.2 hPa Calm     85% 0 mm WeatherDisplay:10.37 W/m2 FEW
01:39 -29.2 °C -30.3 °C 35072.2 hPa Calm     85% 0 mm WeatherDisplay:10.37 W/m2 FEW
01:44 -29.3 °C -30.3 °C 35072.2 hPa Calm     85% 0 mm WeatherDisplay:10.37 W/m2 FEW
01:49 -29.3 °C -30.3 °C 35072.2 hPa NNW 3.9 km/h 7.7 km/h 85% 0 mm WeatherDisplay:10.37 W/m2 FEW
01:54 -29.2 °C -30.3 °C 35072.2 hPa NNW 2.6 km/h 9 km/h 85% 0 mm WeatherDisplay:10.37 W/m2 FEW
01:59 -29.2 °C -30.2 °C 35072.2 hPa NNW 2.9 km/h 9 km/h 85% 0 mm WeatherDisplay:10.37 W/m2 FEW
02:04 -29.2 °C -30.1 °C 35082.3 hPa NNW 4.7 km/h 9 km/h 86% 0 mm WeatherDisplay:10.37 W/m2 FEW
02:09 -29.1 °C -30.1 °C 35082.3 hPa NNW 2.3 km/h 7.7 km/h 86% 0 mm WeatherDisplay:10.37 W/m2 FEW
02:14 -29.1 °C -30.2 °C 35082.3 hPa Calm     85% 0 mm WeatherDisplay:10.37 W/m2 FEW
02:19 -29.1 °C -30.2 °C 35072.2 hPa NNW 4.3 km/h 9 km/h 85% 0 mm WeatherDisplay:10.37 W/m2 FEW
02:24 -29.1 °C -30.2 °C 35082.3 hPa NNW 0.8 km/h 5.1 km/h 85% 0 mm WeatherDisplay:10.37 W/m2 FEW
02:29 -29.2 °C -30.2 °C 35082.3 hPa NNW 1.3 km/h 6 km/h 85% 0 mm WeatherDisplay:10.37 W/m2 FEW
02:34 -29.2 °C -30.2 °C 35095.9 hPa NNW 1.3 km/h 6 km/h 85% 0 mm WeatherDisplay:10.37 W/m2 FEW
02:39 -29.2 °C -30.2 °C 35082.3 hPa NNW 3.7 km/h 9 km/h 85% 0 mm WeatherDisplay:10.37 W/m2 FEW
02:44 -29.2 °C -30.2 °C 35095.9 hPa NNW 6.3 km/h 9 km/h 85% 0 mm WeatherDisplay:10.37 W/m2 FEW
02:49 -29.2 °C -30.2 °C 35095.9 hPa NNW 2.1 km/h 6 km/h 85% 0 mm WeatherDisplay:10.37 W/m2 FEW
02:54 -29.2 °C -30.2 °C 35095.9 hPa NNW 4.7 km/h 9 km/h 85% 0 mm WeatherDisplay:10.37 W/m2 FEW
02:59 -29.1 °C -30.1 °C 35095.9 hPa Calm   3.1 km/h 86% 0 mm WeatherDisplay:10.37 W/m2 FEW
03:04 -29.1 °C -30.1 °C 35095.9 hPa NNW 4.3 km/h 9 km/h 86% 0 mm WeatherDisplay:10.37 W/m2 FEW
03:09 -29.1 °C -30 °C 35095.9 hPa NNW 6 km/h 9 km/h 86% 0 mm WeatherDisplay:10.37 W/m2 FEW
03:14 -29.1 °C -30 °C 35095.9 hPa NNW 7.2 km/h 9 km/h 86% 0 mm WeatherDisplay:10.37 W/m2 FEW
03:19 -29 °C -29.9 °C 35095.9 hPa Calm     86% 0 mm WeatherDisplay:10.37 W/m2 FEW
03:24 -29.1 °C -30.1 °C 35095.9 hPa Calm     85% 0 mm WeatherDisplay:10.37 W/m2 FEW
03:29 -29.1 °C -30.1 °C 35095.9 hPa Calm     85% 0 mm WeatherDisplay:10.37 W/m2 FEW
03:34 -29.2 °C -30.2 °C 35095.9 hPa Calm     85% 0 mm WeatherDisplay:10.37 W/m2 FEW
03:39 -29.2 °C -30.2 °C 35082.3 hPa Calm     85% 0 mm WeatherDisplay:10.37 W/m2 FEW
03:44 -29.3 °C -30.3 °C 35095.9 hPa Calm     85% 0 mm WeatherDisplay:10.37 W/m2 FEW
03:49 -29.3 °C -30.3 °C 35095.9 hPa Calm     85% 0 mm WeatherDisplay:10.37 W/m2 FEW
03:54 -29.3 °C -30.3 °C 35095.9 hPa Calm     85% 0 mm WeatherDisplay:10.37 W/m2 FEW
03:59 -29.3 °C -30.3 °C 35095.9 hPa Calm     85% 0 mm WeatherDisplay:10.37 W/m2 FEW
04:04 -29.3 °C -30.3 °C 35095.9 hPa Calm     85% 0 mm WeatherDisplay:10.37 W/m2 FEW
04:09 -29.3 °C -30.3 °C 35095.9 hPa Calm     85% 0 mm WeatherDisplay:10.37 W/m2 FEW
04:14 -29.3 °C -30.4 °C 35095.9 hPa Calm     85% 0 mm WeatherDisplay:10.37 W/m2 FEW
04:19 -29.4 °C -30.4 °C 35095.9 hPa Calm     85% 0 mm WeatherDisplay:10.37 W/m2 FEW
04:24 -29.4 °C -30.6 °C 35106 hPa Calm     84% 0 mm WeatherDisplay:10.37 W/m2 FEW
04:29 -29.6 °C -30.7 °C 35106 hPa Calm     84% 0 mm WeatherDisplay:10.37 W/m2 FEW
04:34 -29.6 °C -30.7 °C 35106 hPa Calm     84% 0 mm WeatherDisplay:10.37 W/m2 FEW
04:39 -29.7 °C -30.8 °C 35106 hPa Calm     84% 0 mm WeatherDisplay:10.37 W/m2 FEW
04:44 -29.7 °C -30.8 °C 35106 hPa Calm     84% 0 mm WeatherDisplay:10.37 W/m2 FEW
04:49 -29.8 °C -30.9 °C 35106 hPa Calm     83% 0 mm WeatherDisplay:10.37 W/m2 FEW
04:54 -29.8 °C -31 °C 35116.2 hPa Calm     83% 0 mm WeatherDisplay:10.37 W/m2 FEW
04:59 -29.8 °C -30.9 °C 35116.2 hPa Calm     84% 0 mm WeatherDisplay:10.37 W/m2 FEW
05:04 -29.8 °C -30.9 °C 35116.2 hPa Calm     84% 0 mm WeatherDisplay:10.37 W/m2 FEW
05:09 -29.8 °C -30.9 °C 35116.2 hPa Calm     84% 0 mm WeatherDisplay:10.37 W/m2 FEW
05:14 -29.9 °C -31 °C 35116.2 hPa NNW 0.3 km/h 3.1 km/h 84% 0 mm WeatherDisplay:10.37 W/m2 FEW
05:19 -29.9 °C -31 °C 35116.2 hPa Calm     84% 0 mm WeatherDisplay:10.37 W/m2 FEW
05:24 -29.9 °C -31 °C 35116.2 hPa Calm     84% 0 mm WeatherDisplay:10.37 W/m2 FEW
05:29 -29.9 °C -31 °C 35116.2 hPa Calm     84% 0 mm WeatherDisplay:10.37 W/m2 FEW
05:34 -29.9 °C -31 °C 35116.2 hPa Calm     84% 0 mm WeatherDisplay:10.37 W/m2 FEW
05:39 -29.8 °C -30.9 °C 35116.2 hPa Calm     85% 0 mm WeatherDisplay:10.37 W/m2 FEW
05:44 -29.8 °C -30.9 °C 35116.2 hPa Calm     85% 0 mm WeatherDisplay:10.37 W/m2 FEW
05:49 -29.8 °C -30.9 °C 35116.2 hPa Calm     85% 0 mm WeatherDisplay:10.37 W/m2 FEW
05:55 -29.8 °C -30.8 °C 35116.2 hPa Calm     85% 0 mm WeatherDisplay:10.37 W/m2 FEW
06:00 -29.8 °C -30.8 °C 35116.2 hPa Calm     85% 0 mm WeatherDisplay:10.37 W/m2 FEW
06:05 -29.8 °C -30.9 °C 35116.2 hPa Calm     85% 0 mm WeatherDisplay:10.37 W/m2 FEW
06:10 -29.9 °C -31 °C 35116.2 hPa Calm     84% 0 mm WeatherDisplay:10.37 W/m2 FEW
06:15 -29.9 °C -31 °C 35116.2 hPa Calm     84% 0 mm WeatherDisplay:10.37 W/m2 FEW
06:20 -29.9 °C -31 °C 35116.2 hPa Calm     84% 0 mm WeatherDisplay:10.37 W/m2 FEW
06:25 -29.9 °C -31 °C 35106 hPa Calm     84% 0 mm WeatherDisplay:10.37 W/m2 FEW
06:30 -29.9 °C -31 °C 35106 hPa Calm     84% 0 mm WeatherDisplay:10.37 W/m2 FEW
06:35 -29.9 °C -31.1 °C 35116.2 hPa Calm     84% 0 mm WeatherDisplay:10.37 W/m2 FEW
06:40 -30 °C -31.1 °C 35116.2 hPa Calm     84% 0 mm WeatherDisplay:10.37 W/m2 FEW
06:45 -30.1 °C -31.1 °C 35116.2 hPa Calm     84% 0 mm WeatherDisplay:10.37 W/m2 FEW
06:50 -30 °C -31.1 °C 35129.8 hPa Calm     84% 0 mm WeatherDisplay:10.37 W/m2 FEW
06:55 -30.1 °C -31.1 °C 35129.8 hPa Calm     84% 0 mm WeatherDisplay:10.37 W/m2 FEW
07:00 -30 °C -31.1 °C 35129.8 hPa Calm     84% 0 mm WeatherDisplay:10.37 W/m2 FEW
07:05 -30 °C -31.1 °C 35129.8 hPa Calm     84% 0 mm WeatherDisplay:10.37 W/m2 FEW
07:10 -30 °C -31.1 °C 35129.8 hPa Calm     84% 0 mm WeatherDisplay:10.37 W/m2 FEW
07:15 -30 °C -31 °C 35129.8 hPa Calm     85% 0 mm WeatherDisplay:10.37 W/m2 FEW
07:20 -30.1 °C -31.1 °C 35129.8 hPa Calm     84% 0 mm WeatherDisplay:10.37 W/m2 FEW
07:25 -30.1 °C -31.1 °C 35129.8 hPa Calm     84% 0 mm WeatherDisplay:10.37 W/m2 FEW
07:30 -30.1 °C -31.2 °C 35129.8 hPa Calm     84% 0 mm WeatherDisplay:10.37 W/m2 FEW
07:35 -30.1 °C -31.2 °C 35129.8 hPa Calm     84% 0 mm WeatherDisplay:10.37 W/m2 FEW
07:40 -30.1 °C -31.2 °C 35129.8 hPa Calm     84% 0 mm WeatherDisplay:10.37 W/m2 FEW
07:45 -30.2 °C -31.2 °C 35139.9 hPa Calm     84% 0 mm WeatherDisplay:10.37 W/m2 FEW
07:50 -30.2 °C -31.2 °C 35139.9 hPa Calm     84% 0 mm WeatherDisplay:10.37 W/m2 FEW
07:55 -30.2 °C -31.3 °C 35139.9 hPa Calm     84% 0 mm WeatherDisplay:10.37 W/m2 FEW
08:00 -30.2 °C -31.3 °C 35139.9 hPa Calm     84% 0 mm WeatherDisplay:10.37 W/m2 FEW
08:05 -30.3 °C -31.4 °C 35139.9 hPa Calm     84% 0 mm WeatherDisplay:10.37 W/m2 FEW
08:10 -30.4 °C -31.6 °C 35139.9 hPa Calm     83% 0 mm WeatherDisplay:10.37 W/m2 FEW
08:15 -30.4 °C -31.6 °C 35139.9 hPa Calm     83% 0 mm WeatherDisplay:10.37 W/m2 FEW
08:20 -30.4 °C -31.6 °C 35139.9 hPa Calm     83% 0 mm WeatherDisplay:10.37 W/m2 FEW
08:25 -30.5 °C -31.7 °C 35139.9 hPa Calm     83% 0 mm WeatherDisplay:10.37 W/m2 FEW
08:30 -30.6 °C -31.7 °C 35139.9 hPa Calm     83% 0 mm WeatherDisplay:10.37 W/m2 FEW
08:35 -30.6 °C -31.8 °C 35139.9 hPa Calm     83% 0 mm WeatherDisplay:10.37 W/m2 FEW
08:40 -30.6 °C -31.8 °C 35139.9 hPa Calm     83% 0 mm WeatherDisplay:10.37 W/m2 FEW
08:45 -30.7 °C -31.8 °C 35150.1 hPa Calm     83% 0 mm WeatherDisplay:10.37 W/m2 FEW
08:50 -30.7 °C -31.8 °C 35139.9 hPa Calm     83% 0 mm WeatherDisplay:10.37 W/m2 FEW
08:55 -30.7 °C -31.8 °C 35150.1 hPa Calm     83% 0 mm WeatherDisplay:10.37 W/m2 FEW
09:00 -30.7 °C -31.9 °C 35139.9 hPa Calm     83% 0 mm WeatherDisplay:10.37 W/m2 FEW
09:05 -30.8 °C -31.9 °C 35139.9 hPa Calm     83% 0 mm WeatherDisplay:10.37 W/m2 FEW
09:10 -30.8 °C -31.9 °C 35150.1 hPa Calm     83% 0 mm WeatherDisplay:10.37 W/m2 FEW
09:15 -30.8 °C -31.9 °C 35150.1 hPa Calm     83% 0 mm WeatherDisplay:10.37 W/m2 FEW
09:20 -30.8 °C -32 °C 35150.1 hPa Calm     83% 0 mm WeatherDisplay:10.37 W/m2 FEW
09:25 -30.9 °C -32 °C 35150.1 hPa Calm     83% 0 mm WeatherDisplay:10.37 W/m2 FEW
09:30 -30.9 °C -32 °C 35150.1 hPa Calm     83% 0 mm WeatherDisplay:10.37 W/m2 FEW
09:35 -30.8 °C -31.9 °C 35150.1 hPa Calm     84% 0 mm WeatherDisplay:10.37 W/m2 FEW
09:40 -30.8 °C -31.9 °C 35150.1 hPa Calm     84% 0 mm WeatherDisplay:10.37 W/m2 FEW
09:45 -30.8 °C -31.9 °C 35150.1 hPa Calm     84% 0 mm WeatherDisplay:10.37 W/m2 FEW
09:50 -30.8 °C -31.9 °C 35150.1 hPa Calm     83% 0 mm WeatherDisplay:10.37 W/m2 FEW
09:55 -30.8 °C -31.9 °C 35150.1 hPa Calm     84% 0 mm WeatherDisplay:10.37 W/m2 FEW
10:00 -30.8 °C -31.9 °C 35163.6 hPa Calm     84% 0 mm WeatherDisplay:10.37 W/m2 FEW
10:05 -30.8 °C -31.9 °C 35163.6 hPa Calm     84% 0 mm WeatherDisplay:10.37 W/m2 FEW
10:10 -30.8 °C -31.9 °C 35163.6 hPa Calm     84% 0 mm WeatherDisplay:10.37 W/m2 FEW
10:15 -30.8 °C -31.9 °C 35163.6 hPa Calm     84% 0 mm WeatherDisplay:10.37 W/m2 FEW
10:20 -30.8 °C -31.9 °C 35163.6 hPa Calm     84% 0 mm WeatherDisplay:10.37 W/m2 FEW
10:25 -30.7 °C -31.8 °C 35163.6 hPa Calm     84% 0 mm WeatherDisplay:10.37 W/m2 FEW
10:30 -30.7 °C -31.8 °C 35163.6 hPa Calm     84% 0 mm WeatherDisplay:10.37 W/m2 FEW
10:35 -30.7 °C -31.8 °C 35163.6 hPa Calm     84% 0 mm WeatherDisplay:10.37 W/m2 FEW
10:40 -30.7 °C -31.8 °C 35163.6 hPa Calm     84% 0 mm WeatherDisplay:10.37 W/m2 FEW
10:46 -30.7 °C -31.7 °C 35163.6 hPa Calm     84% 0 mm WeatherDisplay:10.37 W/m2 FEW
10:51 -30.6 °C -31.7 °C 35163.6 hPa Calm     84% 0 mm WeatherDisplay:10.37 W/m2 FEW
10:56 -30.6 °C -31.7 °C 35163.6 hPa Calm     84% 0 mm WeatherDisplay:10.37 W/m2 FEW
11:01 -30.5 °C -31.6 °C 35163.6 hPa Calm     85% 0 mm WeatherDisplay:10.37 W/m2 FEW
11:06 -30.5 °C -31.6 °C 35163.6 hPa Calm     85% 0 mm WeatherDisplay:10.37 W/m2 FEW
11:11 -30.4 °C -31.4 °C 35163.6 hPa Calm     85% 0 mm WeatherDisplay:10.37 W/m2 FEW
11:16 -30.4 °C -31.4 °C 35163.6 hPa Calm     85% 0 mm WeatherDisplay:10.37 W/m2 FEW
11:21 -30.3 °C -31.3 °C 35163.6 hPa Calm     85% 0 mm WeatherDisplay:10.37 W/m2 FEW
11:26 -30.2 °C -31.2 °C 35173.8 hPa Calm     86% 0 mm WeatherDisplay:10.37 W/m2 FEW
11:31 -30.1 °C -31.1 °C 35163.6 hPa Calm     86% 0 mm WeatherDisplay:10.37 W/m2 FEW
11:36 -30 °C -30.9 °C 35163.6 hPa Calm     86% 0 mm WeatherDisplay:10.37 W/m2 FEW
11:41 -29.9 °C -30.9 °C 35163.6 hPa Calm     86% 0 mm WeatherDisplay:10.37 W/m2 FEW
11:46 -29.9 °C -30.8 °C 35163.6 hPa Calm     86% 0 mm WeatherDisplay:10.37 W/m2 FEW
11:51 -29.8 °C -30.8 °C 35163.6 hPa Calm     86% 0 mm WeatherDisplay:10.37 W/m2 FEW
11:56 -29.8 °C -30.7 °C 35163.6 hPa Calm     86% 0 mm WeatherDisplay:10.37 W/m2 FEW
12:01 -29.7 °C -30.7 °C 35163.6 hPa Calm     86% 0 mm WeatherDisplay:10.37 W/m2 FEW
12:06 -29.7 °C -30.6 °C 35163.6 hPa Calm     86% 0 mm WeatherDisplay:10.37 W/m2 FEW
12:11 -29.6 °C -30.6 °C 35163.6 hPa Calm     86% 0 mm WeatherDisplay:10.37 W/m2 FEW
12:16 -29.6 °C -30.4 °C 35163.6 hPa Calm     87% 0 mm WeatherDisplay:10.37 W/m2 FEW
12:21 -29.4 °C -30.3 °C 35163.6 hPa Calm     87% 0 mm WeatherDisplay:10.37 W/m2 FEW
12:26 -29.3 °C -30.2 °C 35163.6 hPa Calm     87% 0 mm WeatherDisplay:10.37 W/m2 FEW
12:31 -29.3 °C -30.2 °C 35163.6 hPa Calm     87% 0 mm WeatherDisplay:10.37 W/m2 FEW
12:36 -29.3 °C -30.2 °C 35163.6 hPa Calm     87% 0 mm WeatherDisplay:10.37 W/m2 FEW
12:41 -29.1 °C -30.1 °C 35163.6 hPa Calm     87% 0 mm WeatherDisplay:10.37 W/m2 FEW
12:46 -29 °C -29.9 °C 35150.1 hPa Calm     87% 0 mm WeatherDisplay:10.37 W/m2 FEW
12:51 -28.9 °C -29.8 °C 35150.1 hPa Calm     88% 0 mm WeatherDisplay:10.37 W/m2 FEW
12:56 -28.9 °C -29.7 °C 35150.1 hPa Calm     88% 0 mm WeatherDisplay:10.37 W/m2 FEW
13:01 -28.8 °C -29.7 °C 35150.1 hPa Calm     87% 0 mm WeatherDisplay:10.37 W/m2 FEW
13:06 -28.8 °C -29.7 °C 35150.1 hPa Calm     87% 0 mm WeatherDisplay:10.37 W/m2 FEW
13:11 -28.8 °C -29.6 °C 35139.9 hPa Calm     88% 0 mm WeatherDisplay:10.37 W/m2 FEW
13:16 -28.7 °C -29.6 °C 35139.9 hPa Calm     87% 0 mm WeatherDisplay:10.37 W/m2 FEW
13:21 -28.7 °C -29.5 °C 35139.9 hPa Calm     88% 0 mm WeatherDisplay:10.37 W/m2 FEW
13:26 -28.6 °C -29.5 °C 35139.9 hPa Calm     87% 0 mm WeatherDisplay:10.37 W/m2 FEW
13:31 -28.6 °C -29.5 °C 35139.9 hPa Calm     87% 0 mm WeatherDisplay:10.37 W/m2 FEW
13:36 -28.5 °C -29.4 °C 35129.8 hPa Calm     87% 0 mm WeatherDisplay:10.37 W/m2 FEW
13:41 -28.5 °C -29.4 °C 35129.8 hPa Calm     87% 0 mm WeatherDisplay:10.37 W/m2 FEW
13:46 -28.4 °C -29.3 °C 35129.8 hPa Calm     87% 0 mm WeatherDisplay:10.37 W/m2 FEW
13:51 -28.4 °C -29.3 °C 35129.8 hPa Calm     87% 0 mm WeatherDisplay:10.37 W/m2 FEW
13:56 -28.4 °C -29.3 °C 35129.8 hPa Calm     87% 0 mm WeatherDisplay:10.37 W/m2 FEW
14:01 -28.3 °C -29.2 °C 35116.2 hPa Calm     87% 0 mm WeatherDisplay:10.37 W/m2 FEW
14:06 -28.2 °C -29.1 °C 35116.2 hPa Calm     88% 0 mm WeatherDisplay:10.37 W/m2 FEW
14:11 -28.1 °C -28.9 °C 35129.8 hPa Calm     88% 0 mm WeatherDisplay:10.37 W/m2 FEW
14:16 -28 °C -28.8 °C 35116.2 hPa Calm     88% 0 mm WeatherDisplay:10.37 W/m2 FEW
14:21 -27.9 °C -28.8 °C 35129.8 hPa Calm     88% 0 mm WeatherDisplay:10.37 W/m2 FEW
14:26 -27.9 °C -28.7 °C 35129.8 hPa Calm     88% 0 mm WeatherDisplay:10.37 W/m2 FEW
14:31 -27.9 °C -28.7 °C 35129.8 hPa Calm     88% 0 mm WeatherDisplay:10.37 W/m2 FEW
14:36 -27.9 °C -28.7 °C 35129.8 hPa Calm     88% 0 mm WeatherDisplay:10.37 W/m2 FEW
14:41 -27.9 °C -28.7 °C 35129.8 hPa Calm     88% 0 mm WeatherDisplay:10.37 W/m2 FEW
14:46 -27.9 °C -28.8 °C 35129.8 hPa Calm     87% 0 mm WeatherDisplay:10.37 W/m2 FEW
14:51 -27.9 °C -28.8 °C 35129.8 hPa Calm     87% 0 mm WeatherDisplay:10.37 W/m2 FEW
14:56 -28 °C -29 °C 35129.8 hPa Calm     86% 0 mm WeatherDisplay:10.37 W/m2 FEW
15:01 -28.1 °C -29.1 °C 35129.8 hPa Calm     86% 0 mm WeatherDisplay:10.37 W/m2 FEW
15:06 -28.2 °C -29.2 °C 35129.8 hPa Calm     86% 0 mm WeatherDisplay:10.37 W/m2 FEW
15:11 -28.2 °C -29.2 °C 35129.8 hPa Calm     86% 0 mm WeatherDisplay:10.37 W/m2 FEW
15:16 -28.3 °C -29.3 °C 35116.2 hPa Calm     86% 0 mm WeatherDisplay:10.37 W/m2 FEW
15:21 -28.4 °C -29.5 °C 35116.2 hPa Calm     85% 0 mm WeatherDisplay:10.37 W/m2 FEW
15:26 -28.4 °C -29.4 °C 35116.2 hPa Calm     86% 0 mm WeatherDisplay:10.37 W/m2 FEW
15:31 -28.5 °C -29.6 °C 35116.2 hPa Calm     85% 0 mm WeatherDisplay:10.37 W/m2 FEW
15:36 -28.6 °C -29.6 °C 35116.2 hPa Calm     85% 0 mm WeatherDisplay:10.37 W/m2 FEW
15:41 -28.6 °C -29.7 °C 35116.2 hPa Calm     85% 0 mm WeatherDisplay:10.37 W/m2 FEW
15:46 -28.7 °C -29.8 °C 35116.2 hPa Calm     85% 0 mm WeatherDisplay:10.37 W/m2 FEW
15:51 -28.7 °C -29.8 °C 35116.2 hPa Calm     85% 0 mm WeatherDisplay:10.37 W/m2 FEW
15:56 -28.8 °C -29.9 °C 35116.2 hPa Calm     85% 0 mm WeatherDisplay:10.37 W/m2 FEW
16:01 -28.9 °C -29.9 °C 35116.2 hPa Calm     85% 0 mm WeatherDisplay:10.37 W/m2 FEW
16:06 -28.9 °C -30 °C 35106 hPa Calm     85% 0 mm WeatherDisplay:10.37 W/m2 FEW
16:11 -29 °C -30.1 °C 35106 hPa Calm     84% 0 mm WeatherDisplay:10.37 W/m2 FEW
16:16 -29.1 °C -30.1 °C 35106 hPa Calm     85% 0 mm WeatherDisplay:10.37 W/m2 FEW
16:21 -29.1 °C -30.2 °C 35106 hPa Calm     85% 0 mm WeatherDisplay:10.37 W/m2 FEW
16:26 -29.1 °C -30.2 °C 35106 hPa Calm     84% 0 mm WeatherDisplay:10.37 W/m2 FEW
16:31 -29.2 °C -30.3 °C 35106 hPa Calm     84% 0 mm WeatherDisplay:10.37 W/m2 FEW
16:36 -29.2 °C -30.3 °C 35106 hPa Calm     84% 0 mm WeatherDisplay:10.37 W/m2 FEW
16:41 -29.3 °C -30.4 °C 35106 hPa Calm     84% 0 mm WeatherDisplay:10.37 W/m2 FEW
16:46 -29.3 °C -30.4 °C 35106 hPa Calm     84% 0 mm WeatherDisplay:10.37 W/m2 FEW
16:51 -29.3 °C -30.4 °C 35106 hPa Calm     84% 0 mm WeatherDisplay:10.37 W/m2 FEW
16:56 -29.4 °C -30.5 °C 35095.9 hPa Calm     84% 0 mm WeatherDisplay:10.37 W/m2 FEW
17:01 -29.4 °C -30.5 °C 35095.9 hPa Calm     84% 0 mm WeatherDisplay:10.37 W/m2 FEW
17:06 -29.4 °C -30.6 °C 35095.9 hPa Calm     84% 0 mm WeatherDisplay:10.37 W/m2 FEW
17:11 -29.5 °C -30.5 °C 35095.9 hPa Calm     85% 0 mm WeatherDisplay:10.37 W/m2 FEW
17:16 -29.5 °C -30.6 °C 35082.3 hPa Calm     84% 0 mm WeatherDisplay:10.37 W/m2 FEW
17:21 -29.6 °C -30.7 °C 35082.3 hPa Calm     84% 0 mm WeatherDisplay:10.37 W/m2 FEW
17:26 -29.6 °C -30.7 °C 35082.3 hPa Calm     84% 0 mm WeatherDisplay:10.37 W/m2 FEW
17:31 -29.6 °C -30.7 °C 35082.3 hPa Calm     84% 0 mm WeatherDisplay:10.37 W/m2 FEW
17:36 -29.6 °C -30.6 °C 35082.3 hPa Calm     85% 0 mm WeatherDisplay:10.37 W/m2 FEW
17:41 -29.6 °C -30.6 °C 35082.3 hPa Calm     85% 0 mm WeatherDisplay:10.37 W/m2 FEW
17:46 -29.6 °C -30.6 °C 35082.3 hPa Calm     85% 0 mm WeatherDisplay:10.37 W/m2 FEW
17:51 -29.5 °C -30.5 °C 35082.3 hPa Calm     85% 0 mm WeatherDisplay:10.37 W/m2 FEW
17:56 -29.5 °C -30.5 °C 35082.3 hPa Calm     85% 0 mm WeatherDisplay:10.37 W/m2 FEW
18:01 -29.5 °C -30.5 °C 35082.3 hPa Calm     85% 0 mm WeatherDisplay:10.37 W/m2 FEW
18:06 -29.4 °C -30.4 °C 35082.3 hPa Calm     85% 0 mm WeatherDisplay:10.37 W/m2 FEW
18:11 -29.4 °C -30.4 °C 35082.3 hPa Calm     85% 0 mm WeatherDisplay:10.37 W/m2 FEW
18:16 -29.4 °C -30.4 °C 35082.3 hPa Calm     85% 0 mm WeatherDisplay:10.37 W/m2 FEW
18:21 -29.3 °C -30.4 °C 35082.3 hPa Calm     85% 0 mm WeatherDisplay:10.37 W/m2 FEW
18:26 -29.3 °C -30.3 °C 35082.3 hPa Calm     86% 0 mm WeatherDisplay:10.37 W/m2 FEW
18:31 -29.3 °C -30.2 °C 35082.3 hPa Calm     86% 0 mm WeatherDisplay:10.37 W/m2 FEW
18:36 -29.2 °C -30.2 °C 35082.3 hPa Calm     86% 0 mm WeatherDisplay:10.37 W/m2 FEW
18:41 -29.2 °C -30.2 °C 35072.2 hPa Calm     86% 0 mm WeatherDisplay:10.37 W/m2 FEW
18:46 -29.2 °C -30.2 °C 35072.2 hPa Calm     86% 0 mm WeatherDisplay:10.37 W/m2 FEW
18:51 -29.2 °C -30.3 °C 35072.2 hPa Calm     85% 0 mm WeatherDisplay:10.37 W/m2 FEW
18:56 -29.3 °C -30.3 °C 35058.6 hPa Calm     85% 0 mm WeatherDisplay:10.37 W/m2 FEW
19:01 -29.3 °C -30.3 °C 35058.6 hPa Calm     85% 0 mm WeatherDisplay:10.37 W/m2 FEW
19:06 -29.3 °C -30.3 °C 35058.6 hPa Calm     85% 0 mm WeatherDisplay:10.37 W/m2 FEW
19:11 -29.3 °C -30.3 °C 35058.6 hPa Calm     85% 0 mm WeatherDisplay:10.37 W/m2 FEW
19:16 -29.3 °C -30.3 °C 35048.5 hPa Calm     85% 0 mm WeatherDisplay:10.37 W/m2 FEW
19:21 -29.3 °C -30.3 °C 35048.5 hPa Calm     85% 0 mm WeatherDisplay:10.37 W/m2 FEW
19:26 -29.3 °C -30.3 °C 35048.5 hPa Calm     85% 0 mm WeatherDisplay:10.37 W/m2 FEW
19:31 -29.2 °C -30.3 °C 35038.3 hPa Calm     85% 0 mm WeatherDisplay:10.37 W/m2 FEW
19:36 -29.2 °C -30.3 °C 35038.3 hPa Calm     85% 0 mm WeatherDisplay:10.37 W/m2 FEW
19:41 -29.2 °C -30.3 °C 35038.3 hPa Calm     85% 0 mm WeatherDisplay:10.37 W/m2 FEW
19:46 -29.2 °C -30.2 °C 35038.3 hPa Calm     85% 0 mm WeatherDisplay:10.37 W/m2 FEW
19:51 -29.2 °C -30.2 °C 35038.3 hPa Calm     85% 0 mm WeatherDisplay:10.37 W/m2 FEW
19:56 -29.2 °C -30.2 °C 35038.3 hPa Calm     85% 0 mm WeatherDisplay:10.37 W/m2 FEW
20:02 -29.2 °C -30.1 °C 35038.3 hPa Calm     86% 0 mm WeatherDisplay:10.37 W/m2 FEW
20:07 -29.1 °C -30.1 °C 35038.3 hPa Calm     86% 0 mm WeatherDisplay:10.37 W/m2 FEW
20:12 -29.1 °C -30.1 °C 35024.8 hPa Calm     86% 0 mm WeatherDisplay:10.37 W/m2 FEW
20:17 -29.1 °C -30.1 °C 35024.8 hPa Calm     86% 0 mm WeatherDisplay:10.37 W/m2 FEW
20:22 -29 °C -29.9 °C 35024.8 hPa Calm     86% 0 mm WeatherDisplay:10.37 W/m2 FEW
20:27 -28.8 °C -29.8 °C 35014.6 hPa Calm     86% 0 mm WeatherDisplay:10.37 W/m2 FEW
20:32 -28.8 °C -29.7 °C 35014.6 hPa Calm     87% 0 mm WeatherDisplay:10.37 W/m2 FEW
20:37 -28.7 °C -29.6 °C 35014.6 hPa Calm     87% 0 mm WeatherDisplay:10.37 W/m2 FEW
20:42 -28.7 °C -29.6 °C 35014.6 hPa Calm     87% 0 mm WeatherDisplay:10.37 W/m2 FEW
20:47 -28.6 °C -29.5 °C 35001.1 hPa Calm     87% 0 mm WeatherDisplay:10.37 W/m2 FEW
20:50 -28.6 °C -29.5 °C 35014.6 hPa Calm     87% 0 mm WeatherDisplay:10.37 W/m2 FEW
20:55 -28.5 °C -29.4 °C 35001.1 hPa Calm     87% 0 mm WeatherDisplay:10.37 W/m2 FEW
21:00 -28.5 °C -29.4 °C 35001.1 hPa Calm     87% 0 mm WeatherDisplay:10.37 W/m2 FEW
21:05 -28.4 °C -29.3 °C 35001.1 hPa Calm     87% 0 mm WeatherDisplay:10.37 W/m2 FEW
21:10 -28.3 °C -29.2 °C 35001.1 hPa Calm     87% 0 mm WeatherDisplay:10.37 W/m2 FEW
21:15 -28.2 °C -29.1 °C 35001.1 hPa Calm     87% 0 mm WeatherDisplay:10.37 W/m2 FEW
21:20 -28.1 °C -28.9 °C 35001.1 hPa Calm     88% 0 mm WeatherDisplay:10.37 W/m2 FEW
21:25 -27.9 °C -28.8 °C 34990.9 hPa Calm     88% 0 mm WeatherDisplay:10.37 W/m2 FEW
21:30 -27.8 °C -28.6 °C 34990.9 hPa Calm     88% 0 mm WeatherDisplay:10.37 W/m2 FEW
21:35 -27.6 °C -28.4 °C 34980.8 hPa Calm     89% 0 mm WeatherDisplay:10.37 W/m2 FEW
21:40 -27.4 °C -28.2 °C 34980.8 hPa Calm     89% 0 mm WeatherDisplay:10.37 W/m2 FEW
21:45 -27.3 °C -28.1 °C 34980.8 hPa Calm     89% 0 mm WeatherDisplay:10.37 W/m2 FEW
21:50 -27.2 °C -28 °C 34980.8 hPa Calm     89% 0 mm WeatherDisplay:10.37 W/m2 FEW
21:55 -27.1 °C -27.9 °C 34980.8 hPa Calm     89% 0 mm WeatherDisplay:10.37 W/m2 FEW
22:00 -26.9 °C -27.7 °C 34980.8 hPa Calm     89% 0 mm WeatherDisplay:10.37 W/m2 FEW
22:05 -26.8 °C -27.5 °C 34980.8 hPa Calm     90% 0 mm WeatherDisplay:10.37 W/m2 FEW
22:10 -26.6 °C -27.3 °C 34980.8 hPa Calm     90% 0 mm WeatherDisplay:10.37 W/m2 FEW
22:15 -26.4 °C -27.1 °C 34967.2 hPa Calm     90% 0 mm WeatherDisplay:10.37 W/m2 FEW
22:20 -26.3 °C -27 °C 34967.2 hPa Calm     90% 0 mm WeatherDisplay:10.37 W/m2 FEW
22:25 -26.1 °C -26.8 °C 34967.2 hPa Calm     90% 0 mm WeatherDisplay:10.37 W/m2 FEW
22:30 -25.9 °C -26.6 °C 34967.2 hPa Calm     91% 0 mm WeatherDisplay:10.37 W/m2 FEW
22:35 -25.7 °C -26.4 °C 34967.2 hPa Calm     91% 0 mm WeatherDisplay:10.37 W/m2 FEW
22:40 -25.6 °C -26.2 °C 34957.1 hPa Calm     91% 0 mm WeatherDisplay:10.37 W/m2 FEW
22:45 -25.4 °C -26.1 °C 34957.1 hPa Calm     91% 0 mm WeatherDisplay:10.37 W/m2 FEW
22:50 -25.2 °C -25.9 °C 34946.9 hPa Calm     91% 0 mm WeatherDisplay:10.37 W/m2 FEW
22:55 -24.9 °C -25.6 °C 34946.9 hPa Calm     91% 0 mm WeatherDisplay:10.37 W/m2 FEW
23:00 -24.7 °C -25.2 °C 34946.9 hPa NE 1 km/h 6 km/h 92% 0 mm WeatherDisplay:10.37 W/m2 FEW
23:05 -24.3 °C -24.9 °C 34946.9 hPa ESE 0.5 km/h 3.1 km/h 92% 0 mm WeatherDisplay:10.37 W/m2 FEW
23:10 -23.9 °C -24.5 °C 34946.9 hPa South 4.3 km/h 10.3 km/h 92% 0 mm WeatherDisplay:10.37 W/m2 FEW
23:15 -23.6 °C -24.1 °C 34946.9 hPa Calm     92% 0 mm WeatherDisplay:10.37 W/m2 FEW
23:20 -23.3 °C -23.9 °C 34946.9 hPa Calm     92% 0 mm WeatherDisplay:10.37 W/m2 FEW
23:25 -23.1 °C -23.7 °C 34946.9 hPa SSE 0.3 km/h 6 km/h 92% 0 mm WeatherDisplay:10.37 W/m2 FEW
23:30 -22.9 °C -23.5 °C 34933.4 hPa SE 5 km/h 11.9 km/h 92% 0 mm WeatherDisplay:10.37 W/m2 FEW
23:35 -22.8 °C -23.4 °C 34933.4 hPa South 2.3 km/h 6 km/h 92% 0 mm WeatherDisplay:10.37 W/m2 FEW
23:40 -22.7 °C -23.3 °C 34933.4 hPa SSE 3.1 km/h 11.9 km/h 92% 0 mm WeatherDisplay:10.37 W/m2 FEW
23:45 -22.7 °C -23.2 °C 34933.4 hPa SSE 1.6 km/h 6 km/h 92% 0 mm WeatherDisplay:10.37 W/m2 FEW
23:50 -22.6 °C -23.2 °C 34933.4 hPa SSE 0.8 km/h 6 km/h 92% 0 mm WeatherDisplay:10.37 W/m2 FEW
23:55 -22.6 °C -23.2 °C 34933.4 hPa Calm     92% 0 mm WeatherDisplay:10.37 W/m2 FEW
Tuulensuunkaari, Veikkola, Suomi
Compliments of Weather Underground - 2.75 mb